createdAt,value
2019-03-26T00:01:58.348Z,1.47
2019-03-26T00:04:29.070Z,1.23
2019-03-26T00:06:59.917Z,0.70
2019-03-26T00:09:30.692Z,0.40
2019-03-26T00:12:01.362Z,1.10
2019-03-26T00:14:32.018Z,2.43
2019-03-26T00:17:02.690Z,0.43
2019-03-26T00:19:33.524Z,1.10
2019-03-26T00:22:04.368Z,0.50
2019-03-26T00:24:35.196Z,1.53
2019-03-26T00:27:07.808Z,0.77
2019-03-26T00:29:38.420Z,0.43
2019-03-26T00:32:09.184Z,0.73
2019-03-26T00:34:39.834Z,0.60
2019-03-26T00:37:10.497Z,0.57
2019-03-26T00:39:42.206Z,0.60
2019-03-26T00:42:12.935Z,1.53
2019-03-26T00:44:43.725Z,10.73
2019-03-26T00:47:14.524Z,14.20
2019-03-26T00:49:45.230Z,17.27
2019-03-26T00:52:16.043Z,12.93
2019-03-26T00:54:46.816Z,11.43
2019-03-26T00:57:17.755Z,17.07
2019-03-26T00:59:48.390Z,17.93
2019-03-26T01:02:19.117Z,15.63
2019-03-26T01:04:49.962Z,12.63
2019-03-26T01:07:20.636Z,9.93
2019-03-26T01:09:51.328Z,12.47
2019-03-26T01:12:21.922Z,6.90
2019-03-26T01:14:52.649Z,5.77
2019-03-26T01:17:23.444Z,5.20
2019-03-26T01:19:54.300Z,5.83
2019-03-26T01:22:25.110Z,5.80
2019-03-26T01:24:55.708Z,6.20
2019-03-26T01:27:26.432Z,4.70
2019-03-26T01:29:57.390Z,8.03
2019-03-26T01:32:28.099Z,6.13
2019-03-26T01:34:58.827Z,6.83
2019-03-26T01:37:29.632Z,7.27
2019-03-26T01:40:00.469Z,11.77
2019-03-26T01:42:31.349Z,6.57
2019-03-26T01:45:02.140Z,9.27
2019-03-26T01:47:32.962Z,7.30
2019-03-26T01:50:03.913Z,11.47
2019-03-26T01:52:34.762Z,10.80
2019-03-26T01:55:05.753Z,12.67
2019-03-26T01:57:36.685Z,12.67
2019-03-26T02:00:07.878Z,17.13
2019-03-26T02:02:38.629Z,7.10
2019-03-26T02:05:10.968Z,10.67
2019-03-26T02:07:41.695Z,8.30
2019-03-26T02:10:13.830Z,6.40
2019-03-26T02:12:45.098Z,13.37
2019-03-26T02:15:27.792Z,6.73
2019-03-26T02:17:58.764Z,4.93
2019-03-26T02:20:30.015Z,7.23
2019-03-26T02:23:02.772Z,4.43
2019-03-26T02:25:33.898Z,4.23
2019-03-26T02:28:04.738Z,3.17
2019-03-26T02:30:38.848Z,3.30
2019-03-26T02:33:11.167Z,3.47
2019-03-26T02:35:42.465Z,3.23
2019-03-26T02:38:13.327Z,4.87
2019-03-26T02:40:46.059Z,6.27
2019-03-26T02:43:18.118Z,1.63
2019-03-26T02:45:49.701Z,2.83
2019-03-26T02:48:20.634Z,2.57
2019-03-26T02:50:51.369Z,2.57
2019-03-26T02:53:25.375Z,1.10
2019-03-26T02:55:56.828Z,2.60
2019-03-26T02:58:29.342Z,2.70
2019-03-26T03:01:02.136Z,1.37
2019-03-26T03:03:34.691Z,1.80
2019-03-26T03:06:08.480Z,1.90
2019-03-26T03:08:41.544Z,3.00
2019-03-26T03:11:14.324Z,1.50
2019-03-26T03:13:45.865Z,1.23
2019-03-26T03:16:17.992Z,2.23
2019-03-26T03:18:49.405Z,2.20
2019-03-26T03:21:20.058Z,1.20
2019-03-26T03:23:50.750Z,1.03
2019-03-26T03:26:21.555Z,2.23
2019-03-26T03:28:52.217Z,2.00
2019-03-26T03:31:22.853Z,1.83
2019-03-26T03:33:53.650Z,3.63
2019-03-26T03:36:24.456Z,1.90
2019-03-26T03:38:55.292Z,2.00
2019-03-26T03:41:26.205Z,1.70
2019-03-26T03:43:56.966Z,1.77
2019-03-26T03:46:28.348Z,1.20
2019-03-26T03:48:59.494Z,2.20
2019-03-26T03:51:30.446Z,2.00
2019-03-26T03:54:01.533Z,2.90
2019-03-26T03:56:34.802Z,2.17
2019-03-26T03:59:05.892Z,1.70
2019-03-26T04:01:36.680Z,1.40
2019-03-26T04:04:07.386Z,2.03
2019-03-26T04:06:38.247Z,2.83
2019-03-26T04:09:09.178Z,2.97
2019-03-26T04:11:39.816Z,3.20
2019-03-26T04:14:10.483Z,2.07
2019-03-26T04:16:41.162Z,3.63
2019-03-26T04:19:11.792Z,3.60
2019-03-26T04:21:42.581Z,1.63
2019-03-26T04:24:13.418Z,2.33
2019-03-26T04:26:44.139Z,2.10
2019-03-26T04:29:15.051Z,1.93
2019-03-26T04:31:45.827Z,2.40
2019-03-26T04:34:16.602Z,3.03
2019-03-26T04:36:47.406Z,4.83
2019-03-26T04:39:18.175Z,3.70
2019-03-26T04:41:48.903Z,3.43
2019-03-26T04:44:19.678Z,1.67
2019-03-26T04:46:51.329Z,2.53
2019-03-26T04:49:22.184Z,2.73
2019-03-26T04:51:53.055Z,4.60
2019-03-26T04:54:23.919Z,1.87
2019-03-26T04:56:54.646Z,4.90
2019-03-26T04:59:25.288Z,2.33
2019-03-26T05:01:56.018Z,4.37
2019-03-26T05:04:26.744Z,3.17
2019-03-26T05:06:57.515Z,4.20
2019-03-26T05:09:28.320Z,5.60
2019-03-26T05:11:59.153Z,3.37
2019-03-26T05:14:29.917Z,6.17
2019-03-26T05:17:00.605Z,6.93
2019-03-26T05:19:31.326Z,7.03
2019-03-26T05:22:01.921Z,4.73
2019-03-26T05:24:32.593Z,4.53
2019-03-26T05:27:03.301Z,2.50
2019-03-26T05:29:34.002Z,7.50
2019-03-26T05:32:04.579Z,4.93
2019-03-26T05:34:35.491Z,2.50
2019-03-26T05:37:06.386Z,9.93
2019-03-26T05:39:37.160Z,6.30
2019-03-26T05:42:07.999Z,3.30
2019-03-26T05:44:38.826Z,5.67
2019-03-26T05:47:09.447Z,2.63
2019-03-26T05:49:41.062Z,4.73
2019-03-26T05:52:11.860Z,2.80
2019-03-26T05:54:42.688Z,4.50
2019-03-26T05:57:13.605Z,3.93
2019-03-26T05:59:44.441Z,5.47
2019-03-26T06:02:17.928Z,3.07
2019-03-26T06:04:47.703Z,3.70
2019-03-26T06:07:18.562Z,4.77
2019-03-26T06:09:49.305Z,5.03
2019-03-26T06:12:20.056Z,3.67
2019-03-26T06:14:50.813Z,3.53
2019-03-26T06:17:21.486Z,5.50
2019-03-26T06:19:52.167Z,3.43
2019-03-26T06:22:22.836Z,2.77
2019-03-26T06:24:53.474Z,3.63
2019-03-26T06:27:24.150Z,3.90
2019-03-26T06:29:55.082Z,3.73
2019-03-26T06:32:37.780Z,4.57
2019-03-26T06:35:12.777Z,4.00
2019-03-26T06:37:43.746Z,5.33
2019-03-26T06:40:14.768Z,4.63
2019-03-26T06:42:45.402Z,3.93
2019-03-26T06:45:16.593Z,5.03
2019-03-26T06:47:55.551Z,4.33
2019-03-26T06:50:27.271Z,4.80
2019-03-26T06:52:57.958Z,2.97
2019-03-26T06:55:29.233Z,6.37
2019-03-26T06:58:00.251Z,4.77
2019-03-26T07:00:34.749Z,3.33
2019-03-26T07:03:06.906Z,3.20
2019-03-26T07:05:37.688Z,3.13
2019-03-26T07:08:08.482Z,3.10
2019-03-26T07:10:39.293Z,2.93
2019-03-26T07:13:10.077Z,3.07
2019-03-26T07:15:40.752Z,5.47
2019-03-26T07:18:11.483Z,2.97
2019-03-26T07:20:42.174Z,3.53
2019-03-26T07:23:12.909Z,4.37
2019-03-26T07:25:43.685Z,4.63
2019-03-26T07:28:14.469Z,5.70
2019-03-26T07:30:46.194Z,3.23
2019-03-26T07:33:16.994Z,4.90
2019-03-26T07:35:47.704Z,3.33
2019-03-26T07:38:18.439Z,2.47
2019-03-26T07:40:49.212Z,2.77
2019-03-26T07:43:20.012Z,5.23
2019-03-26T07:45:50.742Z,2.67
2019-03-26T07:48:21.519Z,2.70
2019-03-26T07:50:52.190Z,3.43
2019-03-26T07:53:23.658Z,3.63
2019-03-26T07:55:58.359Z,4.17
2019-03-26T07:58:29.306Z,2.70
2019-03-26T08:01:00.144Z,2.90
2019-03-26T08:03:31.305Z,4.80
2019-03-26T08:06:02.154Z,5.33
2019-03-26T08:08:33.174Z,4.47
2019-03-26T08:11:04.461Z,3.50
2019-03-26T08:13:35.494Z,5.90
2019-03-26T08:16:06.658Z,3.03
2019-03-26T08:18:37.696Z,4.63
2019-03-26T08:21:08.434Z,4.80
2019-03-26T08:23:39.141Z,5.23
2019-03-26T08:26:10.312Z,4.30
2019-03-26T08:28:41.118Z,6.73
2019-03-26T08:31:12.034Z,4.43
2019-03-26T08:33:42.795Z,3.40
2019-03-26T08:36:13.587Z,2.97
2019-03-26T08:38:44.336Z,5.37
2019-03-26T08:41:17.499Z,4.27
2019-03-26T08:43:48.312Z,3.13
2019-03-26T08:46:19.103Z,4.73
2019-03-26T08:48:50.394Z,4.93
2019-03-26T08:51:21.546Z,3.50
2019-03-26T08:53:53.241Z,3.10
2019-03-26T08:56:25.222Z,3.03
2019-03-26T08:58:56.856Z,4.23
2019-03-26T09:01:28.110Z,3.97
2019-03-26T09:03:59.264Z,4.30
2019-03-26T09:06:30.176Z,5.73
2019-03-26T09:09:01.199Z,3.20
2019-03-26T09:11:32.210Z,3.60
2019-03-26T09:14:03.369Z,3.33
2019-03-26T09:16:34.230Z,5.17
2019-03-26T09:19:04.927Z,4.77
2019-03-26T09:21:35.751Z,4.03
2019-03-26T09:24:06.626Z,7.23
2019-03-26T09:26:38.112Z,4.50
2019-03-26T09:29:12.448Z,2.93
2019-03-26T09:31:44.688Z,3.40
2019-03-26T09:34:16.009Z,4.67
2019-03-26T09:36:47.743Z,5.07
2019-03-26T09:39:18.546Z,4.23
2019-03-26T09:42:00.085Z,2.70
2019-03-26T09:44:36.111Z,2.77
2019-03-26T09:47:16.474Z,2.20
2019-03-26T09:49:46.338Z,1.27
2019-03-26T09:52:19.511Z,1.73
2019-03-26T09:54:50.485Z,4.27
2019-03-26T09:57:22.475Z,2.90
2019-03-26T09:59:53.485Z,3.50
2019-03-26T10:02:24.990Z,8.73
2019-03-26T10:04:56.124Z,3.03
2019-03-26T10:07:27.718Z,2.20
2019-03-26T10:10:00.349Z,1.70
2019-03-26T10:12:31.835Z,1.80
2019-03-26T10:15:02.920Z,2.43
2019-03-26T10:17:33.610Z,2.40
2019-03-26T10:20:04.301Z,3.97
2019-03-26T10:22:35.133Z,3.50
2019-03-26T10:25:06.062Z,2.03
2019-03-26T10:27:36.898Z,3.33
2019-03-26T10:30:08.455Z,5.50
2019-03-26T10:32:39.422Z,2.20
2019-03-26T10:35:11.397Z,2.27
2019-03-26T10:37:42.046Z,3.07
2019-03-26T10:40:16.661Z,2.20
2019-03-26T10:42:47.293Z,4.40
2019-03-26T10:45:18.650Z,3.83
2019-03-26T10:47:49.429Z,3.60
2019-03-26T10:50:20.283Z,4.67
2019-03-26T10:52:51.105Z,2.47
2019-03-26T10:55:21.878Z,3.53
2019-03-26T10:57:53.691Z,2.03
2019-03-26T11:00:24.859Z,5.67
2019-03-26T11:02:55.552Z,2.30
2019-03-26T11:05:26.396Z,3.50
2019-03-26T11:07:57.226Z,6.33
2019-03-26T11:10:28.018Z,2.80
2019-03-26T11:12:58.794Z,3.73
2019-03-26T11:15:29.588Z,2.93
2019-03-26T11:18:00.329Z,6.03
2019-03-26T11:20:31.113Z,3.77
2019-03-26T11:23:01.782Z,2.87
2019-03-26T11:25:32.520Z,2.80
2019-03-26T11:28:03.242Z,2.03
2019-03-26T11:30:33.997Z,2.07
2019-03-26T11:33:04.827Z,3.23
2019-03-26T11:35:35.513Z,16.43
2019-03-26T11:38:06.095Z,5.23
2019-03-26T11:40:36.714Z,3.50
2019-03-26T11:43:07.503Z,2.67
2019-03-26T11:45:37.999Z,2.50
2019-03-26T11:48:08.714Z,2.30
2019-03-26T11:50:39.485Z,3.73
2019-03-26T11:53:10.174Z,2.93
2019-03-26T11:55:40.602Z,3.70
2019-03-26T11:58:11.171Z,2.47
2019-03-26T12:00:42.669Z,2.87
2019-03-26T12:03:13.600Z,4.23
2019-03-26T12:05:44.069Z,3.43
2019-03-26T12:08:14.482Z,4.63
2019-03-26T12:10:44.897Z,2.43
2019-03-26T12:13:15.361Z,3.13
2019-03-26T12:15:45.806Z,2.80
2019-03-26T12:18:16.193Z,4.63
2019-03-26T12:20:46.660Z,4.33
2019-03-26T12:23:17.090Z,3.80
2019-03-26T12:26:00.411Z,3.37
2019-03-26T12:28:31.308Z,2.20
2019-03-26T12:31:01.765Z,2.80
2019-03-26T12:33:32.169Z,6.43
2019-03-26T12:36:02.630Z,2.35
2019-03-26T12:38:33.053Z,3.47
2019-03-26T12:41:03.438Z,3.02
2019-03-26T12:43:34.195Z,2.50
2019-03-26T12:46:04.812Z,5.20
2019-03-26T12:48:35.229Z,1.95
2019-03-26T12:51:05.713Z,4.87
2019-03-26T12:53:36.159Z,3.63
2019-03-26T12:56:06.643Z,2.90
2019-03-26T12:58:37.203Z,3.37
2019-03-26T13:01:07.643Z,2.27
2019-03-26T13:03:38.088Z,4.87
2019-03-26T13:06:08.567Z,3.05
2019-03-26T13:08:38.973Z,2.47
2019-03-26T13:11:09.479Z,3.67
2019-03-26T13:13:39.952Z,3.50
2019-03-26T13:16:10.353Z,2.95
2019-03-26T13:18:40.805Z,1.90
2019-03-26T13:21:11.404Z,2.58
2019-03-26T13:23:41.794Z,3.62
2019-03-26T13:26:12.197Z,2.37
2019-03-26T13:28:42.674Z,2.72
2019-03-26T13:31:13.420Z,6.35
2019-03-26T13:33:43.826Z,3.42
2019-03-26T13:36:21.734Z,2.27
2019-03-26T13:38:52.133Z,2.62
2019-03-26T13:41:22.678Z,2.15
2019-03-26T13:43:53.114Z,3.30
2019-03-26T13:46:23.521Z,3.83
2019-03-26T13:48:54.048Z,2.45
2019-03-26T13:51:24.502Z,4.33
2019-03-26T13:53:54.940Z,3.62
2019-03-26T13:56:25.317Z,2.42
2019-03-26T13:58:55.778Z,2.80
2019-03-26T14:01:26.182Z,2.83
2019-03-26T14:03:56.591Z,2.17
2019-03-26T14:06:27.094Z,5.15
2019-03-26T14:08:57.530Z,2.83
2019-03-26T14:11:27.985Z,2.87
2019-03-26T14:13:58.467Z,2.30
2019-03-26T14:16:28.905Z,3.70
2019-03-26T14:18:59.342Z,4.85
2019-03-26T14:21:29.873Z,2.33
2019-03-26T14:24:00.267Z,3.52
2019-03-26T14:26:30.678Z,2.40
2019-03-26T14:29:01.239Z,4.15
2019-03-26T14:31:31.765Z,3.58
2019-03-26T14:34:02.449Z,3.52
2019-03-26T14:36:34.703Z,2.10
2019-03-26T14:39:07.400Z,2.70
2019-03-26T14:41:37.960Z,6.90
2019-03-26T14:44:08.480Z,4.03
2019-03-26T14:46:38.864Z,2.58
2019-03-26T14:49:11.032Z,2.90
2019-03-26T14:51:41.502Z,5.03
2019-03-26T14:54:11.946Z,2.87
2019-03-26T14:56:42.519Z,5.42
2019-03-26T14:59:12.929Z,5.95
2019-03-26T15:01:43.449Z,5.30
2019-03-26T15:04:13.920Z,4.25
2019-03-26T15:06:44.390Z,2.72
2019-03-26T15:09:14.819Z,3.65
2019-03-26T15:11:45.363Z,3.58
2019-03-26T15:14:15.765Z,3.58
2019-03-26T15:16:46.177Z,2.42
2019-03-26T15:19:16.608Z,5.60
2019-03-26T15:21:47.966Z,2.50
2019-03-26T15:24:18.466Z,56.33
2019-03-26T15:26:48.866Z,59.13
2019-03-26T15:29:19.278Z,2.30
2019-03-26T15:31:49.817Z,3.52
2019-03-26T15:34:20.226Z,1.57
2019-03-26T15:36:50.634Z,4.28
2019-03-26T15:39:21.186Z,1.85
2019-03-26T15:41:51.599Z,2.20
2019-03-26T15:44:22.033Z,2.62
2019-03-26T15:46:52.502Z,5.55
2019-03-26T15:49:22.912Z,2.55
2019-03-26T15:51:53.338Z,3.40
2019-03-26T15:54:23.827Z,4.80
2019-03-26T15:56:54.271Z,3.25
2019-03-26T15:59:24.791Z,3.10
2019-03-26T16:01:55.367Z,3.37
2019-03-26T16:04:26.049Z,3.25
2019-03-26T16:06:57.031Z,2.22
2019-03-26T16:09:27.826Z,2.50
2019-03-26T16:11:59.456Z,7.00
2019-03-26T16:14:29.857Z,3.30
2019-03-26T16:17:01.470Z,2.27
2019-03-26T16:19:33.067Z,3.40
2019-03-26T16:22:05.121Z,4.05
2019-03-26T16:24:35.561Z,3.62
2019-03-26T16:27:06.357Z,2.67
2019-03-26T16:29:36.846Z,2.60
2019-03-26T16:32:07.261Z,3.98
2019-03-26T16:34:37.681Z,4.23
2019-03-26T16:37:08.137Z,2.60
2019-03-26T16:39:38.567Z,2.97
2019-03-26T16:42:09.075Z,3.50
2019-03-26T16:44:39.549Z,10.73
2019-03-26T16:47:10.058Z,8.43
2019-03-26T16:49:40.473Z,4.55
2019-03-26T16:52:11.033Z,2.90
2019-03-26T16:54:41.498Z,4.27
2019-03-26T16:57:11.886Z,2.00
2019-03-26T16:59:42.346Z,3.00
2019-03-26T17:02:12.735Z,4.27
2019-03-26T17:04:43.151Z,3.07
2019-03-26T17:07:15.413Z,5.17
2019-03-26T17:09:46.075Z,4.30
2019-03-26T17:12:17.348Z,2.63
2019-03-26T17:14:48.154Z,3.27
2019-03-26T17:17:18.862Z,3.50
2019-03-26T17:19:49.478Z,3.40
2019-03-26T17:22:20.220Z,3.27
2019-03-26T17:24:50.943Z,4.07
2019-03-26T17:27:22.972Z,5.63
2019-03-26T17:29:55.903Z,5.43
2019-03-26T17:32:27.371Z,4.00
2019-03-26T17:34:58.316Z,4.33
2019-03-26T17:37:29.151Z,3.83
2019-03-26T17:39:59.747Z,6.30
2019-03-26T17:42:33.048Z,8.67
2019-03-26T17:45:03.886Z,6.33
2019-03-26T17:47:34.610Z,6.53
2019-03-26T17:50:05.697Z,8.47
2019-03-26T17:52:36.537Z,5.57
2019-03-26T17:55:07.850Z,5.13
2019-03-26T17:57:38.678Z,5.60
2019-03-26T18:00:12.426Z,16.00
2019-03-26T18:02:43.149Z,8.67
2019-03-26T18:05:27.402Z,12.73
2019-03-26T18:07:58.356Z,9.83
2019-03-26T18:10:29.161Z,9.53
2019-03-26T18:13:00.003Z,11.80
2019-03-26T18:15:30.893Z,13.63
2019-03-26T18:18:01.720Z,11.00
2019-03-26T18:20:33.194Z,20.27
2019-03-26T18:23:04.086Z,19.67
2019-03-26T18:25:34.917Z,16.17
2019-03-26T18:28:05.804Z,14.20
2019-03-26T18:30:36.707Z,13.03
2019-03-26T18:33:07.670Z,11.27
2019-03-26T18:35:38.413Z,8.77
2019-03-26T18:38:09.177Z,8.30
2019-03-26T18:40:39.990Z,7.40
2019-03-26T18:43:10.603Z,7.67
2019-03-26T18:45:41.389Z,7.23
2019-03-26T18:48:13.308Z,11.47
2019-03-26T18:50:44.143Z,11.33
2019-03-26T18:53:16.190Z,6.80
2019-03-26T18:55:48.531Z,8.70
2019-03-26T18:58:19.380Z,9.77
2019-03-26T19:00:50.033Z,9.20
2019-03-26T19:03:20.683Z,11.87
2019-03-26T19:05:51.468Z,11.60
2019-03-26T19:08:22.282Z,11.47
2019-03-26T19:10:53.114Z,10.73
2019-03-26T19:13:23.943Z,10.20
2019-03-26T19:15:54.797Z,10.47
2019-03-26T19:18:25.574Z,10.63
2019-03-26T19:21:02.004Z,10.93
2019-03-26T19:23:28.774Z,6.03
2019-03-26T19:25:59.510Z,10.43
2019-03-26T19:28:30.322Z,11.17
2019-03-26T19:31:01.081Z,9.40
2019-03-26T19:33:31.830Z,7.37
2019-03-26T19:36:02.770Z,12.77
2019-03-26T19:38:33.474Z,14.80
2019-03-26T19:41:04.120Z,14.30
2019-03-26T19:43:34.909Z,20.87
2019-03-26T19:46:05.598Z,14.27
2019-03-26T19:48:36.226Z,23.60
2019-03-26T19:51:06.929Z,25.50
2019-03-26T19:53:37.588Z,23.83
2019-03-26T19:56:08.255Z,21.23
2019-03-26T19:58:39.095Z,20.47
2019-03-26T20:01:09.950Z,19.33
2019-03-26T20:03:40.673Z,21.00
2019-03-26T20:06:13.737Z,13.93
2019-03-26T20:08:43.930Z,18.83
2019-03-26T20:11:15.500Z,11.13
2019-03-26T20:13:46.433Z,14.00
2019-03-26T20:16:17.159Z,6.73
2019-03-26T20:18:48.031Z,7.93
2019-03-26T20:21:18.827Z,8.13
2019-03-26T20:23:49.485Z,9.90
2019-03-26T20:26:20.337Z,14.03
2019-03-26T20:28:51.234Z,12.00
2019-03-26T20:31:22.046Z,16.93
2019-03-26T20:33:52.857Z,17.73
2019-03-26T20:36:23.678Z,14.20
2019-03-26T20:38:54.514Z,9.93
2019-03-26T20:41:25.391Z,8.93
2019-03-26T20:43:56.203Z,9.60
2019-03-26T20:46:26.970Z,8.70
2019-03-26T20:48:57.870Z,6.97
2019-03-26T20:51:28.657Z,5.47
2019-03-26T20:53:59.376Z,4.13
2019-03-26T20:56:30.696Z,4.47
2019-03-26T20:59:01.712Z,5.10
2019-03-26T21:01:32.473Z,4.30
2019-03-26T21:04:03.173Z,5.70
2019-03-26T21:06:33.833Z,4.60
2019-03-26T21:09:06.156Z,3.10
2019-03-26T21:11:36.842Z,4.93
2019-03-26T21:14:07.689Z,4.27
2019-03-26T21:16:38.495Z,3.97
2019-03-26T21:19:09.261Z,5.17
2019-03-26T21:21:40.101Z,4.90
2019-03-26T21:24:10.784Z,5.67
2019-03-26T21:26:41.603Z,3.90
2019-03-26T21:29:12.300Z,3.50
2019-03-26T21:31:43.068Z,4.43
2019-03-26T21:34:13.721Z,4.83
2019-03-26T21:36:44.399Z,4.33
2019-03-26T21:39:15.080Z,4.07
2019-03-26T21:41:45.754Z,5.33
2019-03-26T21:44:16.371Z,5.90
2019-03-26T21:46:47.193Z,4.37
2019-03-26T21:49:18.014Z,3.93
2019-03-26T21:51:49.010Z,5.37
2019-03-26T21:54:20.025Z,4.47
2019-03-26T21:56:50.836Z,4.10
2019-03-26T21:59:21.723Z,6.57
2019-03-26T22:01:52.599Z,4.43
2019-03-26T22:04:23.378Z,4.13
2019-03-26T22:06:54.190Z,4.57
2019-03-26T22:09:25.065Z,5.17
2019-03-26T22:11:55.837Z,3.67
2019-03-26T22:14:26.550Z,5.10
2019-03-26T22:16:57.453Z,3.70
2019-03-26T22:19:29.071Z,4.93
2019-03-26T22:22:00.006Z,3.57
2019-03-26T22:24:30.735Z,6.10
2019-03-26T22:27:01.468Z,3.67
2019-03-26T22:29:32.343Z,5.93
2019-03-26T22:32:03.189Z,3.80
2019-03-26T22:34:33.740Z,7.17
2019-03-26T22:37:04.459Z,4.07
2019-03-26T22:39:35.293Z,7.40
2019-03-26T22:42:06.379Z,4.37
2019-03-26T22:44:37.683Z,4.63
2019-03-26T22:47:08.350Z,4.90
2019-03-26T22:49:38.953Z,7.03
2019-03-26T22:52:09.664Z,5.20
2019-03-26T22:54:40.840Z,6.70
2019-03-26T22:57:11.577Z,7.27
2019-03-26T22:59:42.388Z,7.23
2019-03-26T23:02:13.781Z,6.33
2019-03-26T23:04:44.443Z,4.90
2019-03-26T23:07:15.277Z,5.90
2019-03-26T23:09:46.319Z,6.27
2019-03-26T23:12:17.311Z,5.83
2019-03-26T23:14:51.019Z,5.63
2019-03-26T23:17:20.441Z,6.33
2019-03-26T23:19:51.325Z,4.20
2019-03-26T23:22:22.159Z,6.23
2019-03-26T23:24:53.040Z,7.90
2019-03-26T23:27:23.709Z,5.07
2019-03-26T23:29:54.330Z,4.47
2019-03-26T23:32:25.038Z,4.07
2019-03-26T23:34:55.852Z,6.10
2019-03-26T23:37:26.685Z,4.43
2019-03-26T23:39:57.578Z,4.10
2019-03-26T23:42:28.355Z,4.63
2019-03-26T23:44:59.159Z,5.67
2019-03-26T23:47:30.004Z,4.37
2019-03-26T23:50:00.810Z,5.00
2019-03-26T23:52:31.563Z,6.63
2019-03-26T23:55:02.413Z,5.17
2019-03-26T23:57:33.244Z,4.30
